createdAt,value
2023-01-15T00:00:13.461Z,99.29
2023-01-15T00:02:41.837Z,99.86
2023-01-15T00:05:10.275Z,99.09
2023-01-15T00:07:38.481Z,99.21
2023-01-15T00:10:10.125Z,98.30
2023-01-15T00:12:38.312Z,98.61
2023-01-15T00:15:08.023Z,99.20
2023-01-15T00:17:36.218Z,98.81
2023-01-15T00:20:05.152Z,99.20
2023-01-15T00:22:33.369Z,98.73
2023-01-15T00:25:18.969Z,98.04
2023-01-15T00:27:48.660Z,97.73
2023-01-15T00:30:19.001Z,98.08
2023-01-15T00:32:47.329Z,98.69
2023-01-15T00:35:18.704Z,98.53
2023-01-15T00:37:47.279Z,97.46
2023-01-15T00:40:18.113Z,98.23
2023-01-15T00:42:54.177Z,97.12
2023-01-15T00:45:24.468Z,97.31
2023-01-15T00:47:52.965Z,98.56
2023-01-15T00:50:22.677Z,98.07
2023-01-15T00:52:50.844Z,97.25
2023-01-15T00:55:19.122Z,98.47
2023-01-15T00:57:47.398Z,98.24
2023-01-15T01:00:16.664Z,99.58
2023-01-15T01:02:46.305Z,99.28
2023-01-15T01:05:16.940Z,99.95
2023-01-15T01:07:45.145Z,99.77
2023-01-15T01:10:13.526Z,100.00
2023-01-15T01:12:41.735Z,100.00
2023-01-15T01:15:11.410Z,100.00
2023-01-15T01:17:40.274Z,100.00
2023-01-15T01:20:14.929Z,100.00
2023-01-15T01:22:43.154Z,100.00
2023-01-15T01:25:11.978Z,100.00
2023-01-15T01:27:40.212Z,100.00
2023-01-15T01:30:10.541Z,100.00
2023-01-15T01:32:38.794Z,100.00
2023-01-15T01:35:07.886Z,100.00
2023-01-15T01:37:38.063Z,100.00
2023-01-15T01:40:07.652Z,100.00
2023-01-15T01:42:35.839Z,100.00
2023-01-15T01:45:13.153Z,100.00
2023-01-15T01:47:42.273Z,100.00
2023-01-15T01:50:14.119Z,100.00
2023-01-15T01:52:51.402Z,100.00
2023-01-15T01:55:23.556Z,100.00
2023-01-15T01:57:55.892Z,100.00
2023-01-15T02:00:31.161Z,100.00
2023-01-15T02:02:59.574Z,100.00
2023-01-15T02:05:33.496Z,100.00
2023-01-15T02:08:03.271Z,100.00
2023-01-15T02:10:31.836Z,100.00
2023-01-15T02:13:07.780Z,100.00
2023-01-15T02:15:42.018Z,100.00
2023-01-15T02:18:17.593Z,100.00
2023-01-15T02:20:52.389Z,100.00
2023-01-15T02:24:03.447Z,100.00
2023-01-15T02:27:11.314Z,100.00
2023-01-15T02:29:49.846Z,100.00
2023-01-15T02:32:30.954Z,100.00
2023-01-15T02:35:06.084Z,100.00
2023-01-15T02:37:39.258Z,100.00
2023-01-15T02:40:11.857Z,100.00
2023-01-15T02:42:43.831Z,100.00
2023-01-15T02:45:13.756Z,100.00
2023-01-15T02:47:45.628Z,100.00
2023-01-15T02:50:19.150Z,100.00
2023-01-15T02:52:53.479Z,100.00
2023-01-15T02:55:31.163Z,100.00
2023-01-15T02:58:06.166Z,100.00
2023-01-15T03:00:43.447Z,100.00
2023-01-15T03:03:19.270Z,100.00
2023-01-15T03:05:57.225Z,100.00
2023-01-15T03:08:26.137Z,100.00
2023-01-15T03:11:21.200Z,100.00
2023-01-15T03:14:04.383Z,100.00
2023-01-15T03:16:39.120Z,99.87
2023-01-15T03:19:20.955Z,99.41
2023-01-15T03:21:56.989Z,99.82
2023-01-15T03:24:33.666Z,99.41
2023-01-15T03:27:02.986Z,100.00
2023-01-15T03:29:37.751Z,100.00
2023-01-15T03:32:08.266Z,100.00
2023-01-15T03:34:45.503Z,100.00
2023-01-15T03:37:19.389Z,100.00
2023-01-15T03:39:48.174Z,100.00
2023-01-15T03:42:46.955Z,100.00
2023-01-15T03:45:24.742Z,100.00
2023-01-15T03:48:03.158Z,100.00
2023-01-15T03:50:39.770Z,100.00
2023-01-15T03:53:17.258Z,100.00
2023-01-15T03:55:57.757Z,100.00
2023-01-15T03:58:31.073Z,100.00
2023-01-15T04:01:04.749Z,100.00
2023-01-15T04:03:37.101Z,98.73
2023-01-15T04:06:08.906Z,98.87
2023-01-15T04:08:42.118Z,98.92
2023-01-15T04:11:10.502Z,99.04
2023-01-15T04:13:45.040Z,97.65
2023-01-15T04:16:30.205Z,98.28
2023-01-15T04:18:59.679Z,97.41
2023-01-15T04:21:29.100Z,98.22
2023-01-15T04:23:57.315Z,97.80
2023-01-15T04:26:25.995Z,98.81
2023-01-15T04:28:54.182Z,97.67
2023-01-15T04:31:22.505Z,98.40
2023-01-15T04:33:52.127Z,99.18
2023-01-15T04:36:20.409Z,99.01
2023-01-15T04:38:48.683Z,100.00
2023-01-15T04:41:39.875Z,100.00
2023-01-15T04:44:08.230Z,100.00
2023-01-15T04:46:38.765Z,100.00
2023-01-15T04:49:11.637Z,100.00
2023-01-15T04:51:40.297Z,99.89
2023-01-15T04:54:10.193Z,99.73
2023-01-15T04:56:41.845Z,98.74
2023-01-15T04:59:10.373Z,99.86
2023-01-15T05:01:39.237Z,99.65
2023-01-15T05:04:09.597Z,100.00
2023-01-15T05:06:38.492Z,100.00
2023-01-15T05:09:12.636Z,100.00
2023-01-15T05:11:41.556Z,100.00
2023-01-15T05:14:10.149Z,100.00
2023-01-15T05:16:39.205Z,100.00
2023-01-15T05:19:09.563Z,100.00
2023-01-15T05:21:41.551Z,100.00
2023-01-15T05:24:13.069Z,100.00
2023-01-15T05:26:41.531Z,100.00
2023-01-15T05:29:11.610Z,100.00
2023-01-15T05:31:41.865Z,100.00
2023-01-15T05:34:12.948Z,100.00
2023-01-15T05:36:41.257Z,100.00
2023-01-15T05:39:09.715Z,100.00
2023-01-15T05:41:49.864Z,100.00
2023-01-15T05:44:21.409Z,100.00
2023-01-15T05:46:50.908Z,100.00
2023-01-15T05:49:23.645Z,100.00
2023-01-15T05:51:52.636Z,100.00
2023-01-15T05:54:23.259Z,100.00
2023-01-15T05:56:51.539Z,100.00
2023-01-15T05:59:24.133Z,100.00
2023-01-15T06:01:52.597Z,100.00
2023-01-15T06:04:22.894Z,100.00
2023-01-15T06:06:53.250Z,100.00
2023-01-15T06:09:23.069Z,100.00
2023-01-15T06:11:53.661Z,100.00
2023-01-15T06:14:22.434Z,100.00
2023-01-15T06:16:50.725Z,100.00
2023-01-15T06:19:18.974Z,100.00
2023-01-15T06:21:49.062Z,100.00
2023-01-15T06:24:17.975Z,100.00
2023-01-15T06:26:46.238Z,100.00
2023-01-15T06:29:18.541Z,100.00
2023-01-15T06:31:47.381Z,100.00
2023-01-15T06:34:15.730Z,100.00
2023-01-15T06:36:43.969Z,100.00
2023-01-15T06:39:17.285Z,100.00
2023-01-15T06:42:03.463Z,100.00
2023-01-15T06:44:49.359Z,100.00
2023-01-15T06:47:23.576Z,100.00
2023-01-15T06:49:55.691Z,100.00
2023-01-15T06:52:24.529Z,100.00
2023-01-15T06:54:54.651Z,100.00
2023-01-15T06:57:23.186Z,100.00
2023-01-15T06:59:52.220Z,100.00
2023-01-15T07:02:21.638Z,100.00
2023-01-15T07:04:58.350Z,100.00
2023-01-15T07:07:29.104Z,100.00
2023-01-15T07:10:11.491Z,100.00
2023-01-15T07:12:39.690Z,100.00
2023-01-15T07:15:09.317Z,100.00
2023-01-15T07:17:37.574Z,100.00
2023-01-15T07:20:07.707Z,100.00
2023-01-15T07:22:35.887Z,100.00
2023-01-15T07:25:04.588Z,100.00
2023-01-15T07:27:34.451Z,100.00
2023-01-15T07:30:03.129Z,100.00
2023-01-15T07:32:31.335Z,100.00
2023-01-15T07:34:59.565Z,100.00
2023-01-15T07:37:28.706Z,100.00
2023-01-15T07:39:57.547Z,100.00
2023-01-15T07:42:43.483Z,100.00
2023-01-15T07:45:37.216Z,100.00
2023-01-15T07:48:24.302Z,100.00
2023-01-15T07:50:52.489Z,100.00
2023-01-15T07:53:20.719Z,100.00
2023-01-15T07:55:49.091Z,100.00
2023-01-15T07:58:17.320Z,100.00
2023-01-15T08:00:47.031Z,100.00
2023-01-15T08:03:15.327Z,100.00
2023-01-15T08:05:43.566Z,100.00
2023-01-15T08:08:16.526Z,100.00
2023-01-15T08:11:06.629Z,100.00
2023-01-15T08:13:52.482Z,100.00
2023-01-15T08:16:22.111Z,100.00
2023-01-15T08:18:50.331Z,100.00
2023-01-15T08:21:19.592Z,100.00
2023-01-15T08:23:47.853Z,100.00
2023-01-15T08:26:16.077Z,100.00
2023-01-15T08:28:44.298Z,100.00
2023-01-15T08:31:12.563Z,100.00
2023-01-15T08:33:42.107Z,100.00
2023-01-15T08:36:10.532Z,100.00
2023-01-15T08:38:38.716Z,100.00
2023-01-15T08:41:07.533Z,100.00
2023-01-15T08:43:35.876Z,100.00
2023-01-15T08:46:06.698Z,100.00
2023-01-15T08:48:35.238Z,100.00
2023-01-15T08:51:07.640Z,100.00
2023-01-15T08:53:36.230Z,100.00
2023-01-15T08:56:05.385Z,100.00
2023-01-15T08:58:34.469Z,100.00
2023-01-15T09:01:07.110Z,100.00
2023-01-15T09:04:00.372Z,100.00
2023-01-15T09:06:30.142Z,100.00
2023-01-15T09:09:00.723Z,100.00
2023-01-15T09:11:54.158Z,100.00
2023-01-15T09:14:57.692Z,100.00
2023-01-15T09:17:10.871Z,100.00
2023-01-15T09:19:39.115Z,100.00
2023-01-15T09:22:08.713Z,100.00
2023-01-15T09:24:36.945Z,100.00
2023-01-15T09:27:05.342Z,100.00
2023-01-15T09:29:33.602Z,100.00
2023-01-15T09:32:02.570Z,100.00
2023-01-15T09:34:30.801Z,100.00
2023-01-15T09:36:58.976Z,100.00
2023-01-15T09:39:28.536Z,100.00
2023-01-15T09:42:15.840Z,100.00
2023-01-15T09:45:18.507Z,100.00
2023-01-15T09:48:06.054Z,100.00
2023-01-15T09:50:50.140Z,100.00
2023-01-15T09:53:50.921Z,100.00
2023-01-15T09:56:24.795Z,100.00
2023-01-15T09:58:53.726Z,100.00
2023-01-15T10:01:27.940Z,100.00
2023-01-15T10:04:01.964Z,100.00
2023-01-15T10:06:34.722Z,100.00
2023-01-15T10:09:12.279Z,100.00
2023-01-15T10:12:04.489Z,100.00
2023-01-15T10:14:41.884Z,100.00
2023-01-15T10:17:24.166Z,100.00
2023-01-15T10:19:53.758Z,100.00
2023-01-15T10:22:40.391Z,100.00
2023-01-15T10:25:17.065Z,100.00
2023-01-15T10:27:52.335Z,100.00
2023-01-15T10:30:33.557Z,100.00
2023-01-15T10:33:08.692Z,100.00
2023-01-15T10:35:53.366Z,100.00
2023-01-15T10:38:30.870Z,100.00
2023-01-15T10:41:18.213Z,100.00
2023-01-15T10:43:55.680Z,100.00
2023-01-15T10:46:28.015Z,100.00
2023-01-15T10:49:00.412Z,100.00
2023-01-15T10:51:41.454Z,100.00
2023-01-15T10:54:20.212Z,100.00
2023-01-15T10:56:56.329Z,100.00
2023-01-15T10:59:37.733Z,100.00
2023-01-15T11:02:34.075Z,100.00
2023-01-15T11:05:18.114Z,100.00
2023-01-15T11:08:19.541Z,100.00
2023-01-15T11:10:41.386Z,100.00
2023-01-15T11:13:39.262Z,100.00
2023-01-15T11:16:33.617Z,100.00
2023-01-15T11:19:22.138Z,100.00
2023-01-15T11:21:51.534Z,100.00
2023-01-15T11:24:21.875Z,100.00
2023-01-15T11:26:54.749Z,100.00
2023-01-15T11:29:32.381Z,100.00
2023-01-15T11:32:02.399Z,100.00
2023-01-15T11:34:30.643Z,100.00
2023-01-15T11:37:06.688Z,100.00
2023-01-15T11:39:34.966Z,100.00
2023-01-15T11:42:23.075Z,100.00
2023-01-15T11:45:13.753Z,100.00
2023-01-15T11:48:10.053Z,100.00
2023-01-15T11:50:50.993Z,100.00
2023-01-15T11:53:23.758Z,100.00
2023-01-15T11:56:01.269Z,100.00
2023-01-15T11:58:33.951Z,100.00
2023-01-15T12:01:03.003Z,100.00
2023-01-15T12:03:36.748Z,100.00
2023-01-15T12:06:10.249Z,100.00
2023-01-15T12:08:50.542Z,100.00
2023-01-15T12:11:56.108Z,100.00
2023-01-15T12:14:59.322Z,100.00
2023-01-15T12:17:48.436Z,100.00
2023-01-15T12:20:26.066Z,100.00
2023-01-15T12:23:31.577Z,100.00
2023-01-15T12:26:08.630Z,100.00
2023-01-15T12:28:41.395Z,100.00
2023-01-15T12:31:15.307Z,100.00
2023-01-15T12:33:49.979Z,100.00
2023-01-15T12:36:26.266Z,100.00
2023-01-15T12:39:00.909Z,100.00
2023-01-15T12:41:47.122Z,100.00
2023-01-15T12:44:37.619Z,100.00
2023-01-15T12:47:12.968Z,100.00
2023-01-15T12:49:47.590Z,100.00
2023-01-15T12:52:24.376Z,100.00
2023-01-15T12:55:01.655Z,100.00
2023-01-15T12:57:36.358Z,100.00
2023-01-15T13:00:13.525Z,100.00
2023-01-15T13:02:57.641Z,100.00
2023-01-15T13:05:54.865Z,100.00
2023-01-15T13:08:32.174Z,99.69
2023-01-15T13:11:00.742Z,99.93
2023-01-15T13:13:34.774Z,100.00
2023-01-15T13:16:17.425Z,100.00
2023-01-15T13:18:58.605Z,100.00
2023-01-15T13:21:30.252Z,99.94
2023-01-15T13:24:32.224Z,100.00
2023-01-15T13:27:16.732Z,98.21
2023-01-15T13:29:58.967Z,98.92
2023-01-15T13:32:30.912Z,98.70
2023-01-15T13:35:05.998Z,98.26
2023-01-15T13:37:45.458Z,98.57
2023-01-15T13:40:24.410Z,99.05
2023-01-15T13:42:53.371Z,98.34
2023-01-15T13:45:37.005Z,100.00
2023-01-15T13:48:09.995Z,99.76
2023-01-15T13:50:42.847Z,98.66
2023-01-15T13:53:20.645Z,98.75
2023-01-15T13:55:55.660Z,98.73
2023-01-15T13:58:27.854Z,98.79
2023-01-15T14:01:09.418Z,98.06
2023-01-15T14:03:43.962Z,99.23
2023-01-15T14:06:15.465Z,99.12
2023-01-15T14:08:46.004Z,98.76
2023-01-15T14:11:38.738Z,97.32
2023-01-15T14:15:04.751Z,97.95
2023-01-15T14:18:10.593Z,98.39
2023-01-15T14:20:52.562Z,98.05
2023-01-15T14:23:37.442Z,99.16
2023-01-15T14:26:17.497Z,98.09
2023-01-15T14:29:04.510Z,97.41
2023-01-15T14:31:51.765Z,97.40
2023-01-15T14:34:24.985Z,97.39
2023-01-15T14:37:00.004Z,96.19
2023-01-15T14:39:34.723Z,95.92
2023-01-15T14:42:28.061Z,96.63
2023-01-15T14:45:05.461Z,96.79
2023-01-15T14:47:46.094Z,95.51
2023-01-15T14:50:37.870Z,95.11
2023-01-15T14:53:36.219Z,96.13
2023-01-15T14:56:14.292Z,96.43
2023-01-15T14:58:56.026Z,96.94
2023-01-15T15:01:44.606Z,95.73
2023-01-15T15:04:34.344Z,96.59
2023-01-15T15:07:07.222Z,95.52
2023-01-15T15:09:42.417Z,96.33
2023-01-15T15:12:25.817Z,96.00
2023-01-15T15:15:05.217Z,95.11
2023-01-15T15:17:44.881Z,94.67
2023-01-15T15:20:24.996Z,94.81
2023-01-15T15:22:57.858Z,95.03
2023-01-15T15:25:30.339Z,94.46
2023-01-15T15:28:07.656Z,94.90
2023-01-15T15:30:41.158Z,95.43
2023-01-15T15:33:18.301Z,95.54
2023-01-15T15:35:50.740Z,96.26
2023-01-15T15:38:22.787Z,96.27
2023-01-15T15:40:54.214Z,96.46
2023-01-15T15:43:46.033Z,97.08
2023-01-15T15:46:43.907Z,97.64
2023-01-15T15:49:13.777Z,96.80
2023-01-15T15:51:48.651Z,98.21
2023-01-15T15:54:22.065Z,98.41
2023-01-15T15:56:59.144Z,98.70
2023-01-15T15:59:33.448Z,99.11
2023-01-15T16:02:16.714Z,99.69
2023-01-15T16:04:52.042Z,98.93
2023-01-15T16:07:26.715Z,99.45
2023-01-15T16:09:59.307Z,98.97
2023-01-15T16:12:31.071Z,99.29
2023-01-15T16:15:00.170Z,99.39
2023-01-15T16:17:54.377Z,99.79
2023-01-15T16:20:24.817Z,98.91
2023-01-15T16:22:57.115Z,98.80
2023-01-15T16:25:30.628Z,98.78
2023-01-15T16:27:59.071Z,98.42
2023-01-15T16:30:27.546Z,99.03
2023-01-15T16:33:01.020Z,98.88
2023-01-15T16:35:31.907Z,98.77
2023-01-15T16:38:02.832Z,99.81
2023-01-15T16:40:34.469Z,99.55
2023-01-15T16:43:09.048Z,99.71
2023-01-15T16:45:40.109Z,99.46
2023-01-15T16:48:27.410Z,99.72
2023-01-15T16:50:58.252Z,99.01
2023-01-15T16:53:41.853Z,98.81
2023-01-15T16:56:29.454Z,98.80
2023-01-15T16:58:57.627Z,98.04
2023-01-15T17:01:34.553Z,98.63
2023-01-15T17:04:17.505Z,97.85
2023-01-15T17:06:58.962Z,98.13
2023-01-15T17:09:31.753Z,97.90
2023-01-15T17:12:03.652Z,97.98
2023-01-15T17:14:31.890Z,97.76
2023-01-15T17:17:27.026Z,98.06
2023-01-15T17:19:57.457Z,97.98
2023-01-15T17:22:30.323Z,97.97
2023-01-15T17:25:01.350Z,97.28
2023-01-15T17:27:32.017Z,96.54
2023-01-15T17:30:00.579Z,95.70
2023-01-15T17:32:33.376Z,95.20
2023-01-15T17:35:01.613Z,95.27
2023-01-15T17:37:31.191Z,94.77
2023-01-15T17:39:59.416Z,94.71
2023-01-15T17:42:27.623Z,94.45
2023-01-15T17:44:55.802Z,94.17
2023-01-15T17:47:23.931Z,95.19
2023-01-15T17:49:52.079Z,94.55
2023-01-15T17:52:21.615Z,94.15
2023-01-15T17:55:08.979Z,94.29
2023-01-15T17:57:54.550Z,94.16
2023-01-15T18:00:41.968Z,93.64
2023-01-15T18:03:35.026Z,94.50
2023-01-15T18:06:03.760Z,94.37
2023-01-15T18:08:33.850Z,94.72
2023-01-15T18:11:03.555Z,94.32
2023-01-15T18:13:31.761Z,94.64
2023-01-15T18:16:00.006Z,94.47
2023-01-15T18:18:28.307Z,94.13
2023-01-15T18:20:56.529Z,94.43
2023-01-15T18:23:26.095Z,94.52
2023-01-15T18:25:54.357Z,94.43
2023-01-15T18:28:23.906Z,94.39
2023-01-15T18:30:52.185Z,94.02
2023-01-15T18:33:20.427Z,93.96
2023-01-15T18:35:48.644Z,93.93
2023-01-15T18:38:16.839Z,94.17
2023-01-15T18:40:45.051Z,94.11
2023-01-15T18:43:30.083Z,94.06
2023-01-15T18:46:28.856Z,94.63
2023-01-15T18:48:58.549Z,94.15
2023-01-15T18:51:26.743Z,94.17
2023-01-15T18:53:55.371Z,93.95
2023-01-15T18:56:37.491Z,94.45
2023-01-15T18:59:08.102Z,94.25
2023-01-15T19:01:39.434Z,94.89
2023-01-15T19:04:10.930Z,94.85
2023-01-15T19:06:44.530Z,95.26
2023-01-15T19:09:16.834Z,95.19
2023-01-15T19:12:11.192Z,95.31
2023-01-15T19:14:57.036Z,95.86
2023-01-15T19:17:44.802Z,95.58
2023-01-15T19:20:18.941Z,95.50
2023-01-15T19:23:06.094Z,94.73
2023-01-15T19:25:39.725Z,93.85
2023-01-15T19:28:10.556Z,94.27
2023-01-15T19:30:39.946Z,93.38
2023-01-15T19:33:10.825Z,93.82
2023-01-15T19:35:40.620Z,93.91
2023-01-15T19:38:10.590Z,93.58
2023-01-15T19:40:42.007Z,93.62
2023-01-15T19:43:29.193Z,93.40
2023-01-15T19:46:15.615Z,92.99
2023-01-15T19:49:02.816Z,93.38
2023-01-15T19:52:00.472Z,93.42
2023-01-15T19:54:42.622Z,93.54
2023-01-15T19:57:10.838Z,93.76
2023-01-15T19:59:39.270Z,93.46
2023-01-15T20:02:07.540Z,93.34
2023-01-15T20:04:37.107Z,93.51
2023-01-15T20:07:05.368Z,93.80
2023-01-15T20:09:33.584Z,93.67
2023-01-15T20:12:19.115Z,93.57
2023-01-15T20:14:47.491Z,93.87
2023-01-15T20:17:15.714Z,93.76
2023-01-15T20:19:45.525Z,93.88
2023-01-15T20:22:13.794Z,93.66
2023-01-15T20:24:44.052Z,93.54
2023-01-15T20:27:13.635Z,93.97
2023-01-15T20:29:42.041Z,93.20
2023-01-15T20:32:10.407Z,93.98
2023-01-15T20:34:39.759Z,93.71
2023-01-15T20:37:10.221Z,93.71
2023-01-15T20:39:38.459Z,93.80
2023-01-15T20:42:24.737Z,93.86
2023-01-15T20:44:55.725Z,93.47
2023-01-15T20:47:42.879Z,93.14
2023-01-15T20:50:15.733Z,92.82
2023-01-15T20:52:50.022Z,92.57
2023-01-15T20:55:20.531Z,92.37
2023-01-15T20:57:48.885Z,92.21
2023-01-15T21:00:20.319Z,92.31
2023-01-15T21:02:49.295Z,91.90
2023-01-15T21:05:20.322Z,91.76
2023-01-15T21:07:50.908Z,92.10
2023-01-15T21:10:25.990Z,91.94
2023-01-15T21:12:54.499Z,91.64
2023-01-15T21:15:22.759Z,91.77
2023-01-15T21:17:51.007Z,92.29
2023-01-15T21:20:19.348Z,91.67
2023-01-15T21:22:47.909Z,90.74
2023-01-15T21:25:17.664Z,90.80
2023-01-15T21:27:45.909Z,91.10
2023-01-15T21:30:14.963Z,90.84
2023-01-15T21:32:46.302Z,90.83
2023-01-15T21:35:14.622Z,90.66
2023-01-15T21:37:42.834Z,90.62
2023-01-15T21:40:12.842Z,90.13
2023-01-15T21:42:59.840Z,90.25
2023-01-15T21:45:28.164Z,90.55
2023-01-15T21:47:56.867Z,90.07
2023-01-15T21:50:25.083Z,90.51
2023-01-15T21:52:53.441Z,90.52
2023-01-15T21:55:21.686Z,90.30
2023-01-15T21:57:51.443Z,90.14
2023-01-15T22:00:20.750Z,90.29
2023-01-15T22:02:49.677Z,90.12
2023-01-15T22:05:18.175Z,90.42
2023-01-15T22:07:46.424Z,90.20
2023-01-15T22:10:14.674Z,89.96
2023-01-15T22:12:43.244Z,89.84
2023-01-15T22:15:15.711Z,89.61
2023-01-15T22:17:43.869Z,89.38
2023-01-15T22:20:12.627Z,89.33
2023-01-15T22:22:40.798Z,89.08
2023-01-15T22:25:13.309Z,89.43
2023-01-15T22:27:42.454Z,89.06
2023-01-15T22:30:15.533Z,89.30
2023-01-15T22:32:43.889Z,89.48
2023-01-15T22:35:12.255Z,89.38
2023-01-15T22:37:40.866Z,89.60
2023-01-15T22:40:10.921Z,89.73
2023-01-15T22:42:39.408Z,89.60
2023-01-15T22:45:08.360Z,89.39
2023-01-15T22:47:37.921Z,90.08
2023-01-15T22:50:06.983Z,90.02
2023-01-15T22:52:35.519Z,90.41
2023-01-15T22:55:03.709Z,90.27
2023-01-15T22:57:32.159Z,90.90
2023-01-15T23:00:00.520Z,91.00
2023-01-15T23:02:46.565Z,90.91
2023-01-15T23:05:18.855Z,91.11
2023-01-15T23:07:47.125Z,91.60
2023-01-15T23:10:16.186Z,91.55
2023-01-15T23:12:44.758Z,91.65
2023-01-15T23:15:16.155Z,92.05
2023-01-15T23:17:44.955Z,92.31
2023-01-15T23:20:14.168Z,92.93
2023-01-15T23:22:43.873Z,92.35
2023-01-15T23:25:12.224Z,92.32
2023-01-15T23:27:40.410Z,92.42
2023-01-15T23:30:11.019Z,92.30
2023-01-15T23:32:40.503Z,92.50
2023-01-15T23:35:10.181Z,92.77
2023-01-15T23:37:38.349Z,92.81
2023-01-15T23:40:10.576Z,92.76
2023-01-15T23:42:56.161Z,92.56
2023-01-15T23:45:41.964Z,91.94
2023-01-15T23:48:10.481Z,92.36
2023-01-15T23:50:38.740Z,92.11
2023-01-15T23:53:06.890Z,92.04
2023-01-15T23:55:36.472Z,92.29
2023-01-15T23:58:04.889Z,92.63
